Time;durP1;ratioP1;P1;durP2;ratioP2;P2;SDS_P1;SDS_P2;PMS_P1;PMS_P2;Temp;Humidity;BMP_temperature;BMP_pressure;BME280_temperature;BME280_humidity;BME280_pressure;Samples;Min_cycle;Max_cycle;Signal;HPM_P1;HPM_P2
2023/07/06 00:00:40;;;;;;;11.93;7.75;;;13.20;99.90;;;;;;4953362;28;20027;-51
2023/07/06 00:03:06;;;;;;;14.88;6.22;;;13.10;99.90;;;;;;4953628;28;20062;-51
2023/07/06 00:05:32;;;;;;;9.77;5.78;;;13.10;99.90;;;;;;4935916;28;20130;-49
2023/07/06 00:08:00;;;;;;;10.80;6.82;;;13.10;99.90;;;;;;4956367;28;20399;-50
2023/07/06 00:10:25;;;;;;;11.70;7.38;;;13.10;99.90;;;;;;4957435;28;20043;-47
2023/07/06 00:12:51;;;;;;;8.02;6.82;;;13.00;99.90;;;;;;4957572;28;20056;-51
2023/07/06 00:15:17;;;;;;;8.35;7.20;;;13.00;99.90;;;;;;4953212;28;20039;-50
2023/07/06 00:17:43;;;;;;;12.73;5.53;;;13.00;99.90;;;;;;4935620;29;20066;-50
2023/07/06 00:20:12;;;;;;;9.32;6.70;;;12.90;99.90;;;;;;4962508;28;20036;-51
2023/07/06 00:22:38;;;;;;;9.07;7.03;;;12.80;99.90;;;;;;4957400;28;20067;-50
2023/07/06 00:25:04;;;;;;;12.90;7.55;;;12.80;99.90;;;;;;4963217;28;20095;-51
2023/07/06 00:27:31;;;;;;;12.25;5.03;;;12.80;99.90;;;;;;4960978;28;20050;-47
2023/07/06 00:30:07;;;;;;;9.52;6.72;;;12.80;99.90;;;;;;4972275;28;20074;-53
2023/07/06 00:32:32;;;;;;;10.05;4.80;;;12.80;99.90;;;;;;4952580;29;20044;-49
2023/07/06 00:34:59;;;;;;;9.43;7.18;;;12.70;99.90;;;;;;4964703;28;20097;-51
2023/07/06 00:37:26;;;;;;;11.00;7.38;;;12.70;99.90;;;;;;4957801;28;20058;-49
2023/07/06 00:39:52;;;;;;;8.73;4.95;;;12.70;99.90;;;;;;4972222;28;20046;-48
2023/07/06 00:42:20;;;;;;;11.65;5.95;;;12.60;99.90;;;;;;4970515;28;20039;-49
2023/07/06 00:45:01;;;;;;;9.02;5.60;;;12.60;99.90;;;;;;4961541;28;20046;-49
2023/07/06 00:47:44;;;;;;;10.80;5.97;;;12.50;99.90;;;;;;4953675;28;20049;-51
2023/07/06 00:50:16;;;;;;;11.65;5.18;;;12.50;99.90;;;;;;4952511;28;20035;-47
2023/07/06 00:52:51;;;;;;;11.40;7.68;;;12.50;99.90;;;;;;4964578;28;20042;-51
2023/07/06 00:55:19;;;;;;;10.23;8.50;;;12.50;99.90;;;;;;4959012;28;20054;-52
2023/07/06 00:57:51;;;;;;;14.50;9.23;;;12.50;99.90;;;;;;4955496;28;20107;-47
2023/07/06 01:00:21;;;;;;;13.20;6.18;;;12.50;99.90;;;;;;4961670;28;20035;-49
2023/07/06 01:02:52;;;;;;;12.32;9.05;;;12.40;99.90;;;;;;4962304;28;20050;-49
2023/07/06 01:05:19;;;;;;;12.65;8.68;;;12.50;99.90;;;;;;4971498;28;20125;-52
2023/07/06 01:07:47;;;;;;;11.43;8.75;;;12.40;99.90;;;;;;4963603;28;20039;-50
2023/07/06 01:10:13;;;;;;;10.05;6.03;;;12.40;99.90;;;;;;4965113;28;20047;-51
2023/07/06 01:12:39;;;;;;;13.77;9.13;;;12.40;99.90;;;;;;4974064;28;20047;-51
2023/07/06 01:15:08;;;;;;;13.13;9.38;;;12.40;99.90;;;;;;4956512;28;20062;-52
2023/07/06 01:17:50;;;;;;;12.93;8.82;;;12.40;99.90;;;;;;4962421;28;20398;-51
2023/07/06 01:20:26;;;;;;;15.75;5.95;;;12.40;99.90;;;;;;4972556;28;20394;-50
2023/07/06 01:23:10;;;;;;;12.20;9.48;;;12.40;99.90;;;;;;4965485;28;20042;-51
2023/07/06 01:25:54;;;;;;;11.45;9.13;;;12.40;99.90;;;;;;4958442;28;20550;-49
2023/07/06 01:28:41;;;;;;;13.23;9.30;;;12.40;99.90;;;;;;4960583;28;20047;-48
2023/07/06 01:31:43;;;;;;;10.50;9.00;;;12.50;99.90;;;;;;4954797;28;20063;-48
2023/07/06 01:34:14;;;;;;;11.70;6.15;;;12.50;99.90;;;;;;4955708;28;20399;-49
2023/07/06 01:37:02;;;;;;;13.13;9.00;;;12.40;99.90;;;;;;4958765;28;20043;-51
2023/07/06 01:39:28;;;;;;;13.93;9.45;;;12.40;99.90;;;;;;4963828;28;20126;-51
2023/07/06 01:42:13;;;;;;;14.52;6.35;;;12.40;99.90;;;;;;4957450;28;20043;-52
2023/07/06 01:44:48;;;;;;;15.25;9.98;;;12.50;99.90;;;;;;4975446;28;20538;-51
2023/07/06 01:47:17;;;;;;;14.70;9.75;;;12.40;99.90;;;;;;4975362;28;20482;-51
2023/07/06 01:49:44;;;;;;;16.80;10.18;;;12.40;99.90;;;;;;4968590;28;20043;-49
2023/07/06 01:52:09;;;;;;;17.15;10.18;;;12.50;99.90;;;;;;4972338;28;20386;-51
2023/07/06 01:54:49;;;;;;;14.07;6.82;;;12.50;99.90;;;;;;4956572;28;20134;-50
2023/07/06 01:57:24;;;;;;;15.07;10.40;;;12.40;99.90;;;;;;4938499;29;20043;-50
2023/07/06 01:59:53;;;;;;;15.00;9.82;;;12.50;99.90;;;;;;4955589;28;20039;-50
2023/07/06 02:02:20;;;;;;;13.13;6.97;;;12.60;99.90;;;;;;4974868;28;20105;-48
2023/07/06 02:04:47;;;;;;;17.13;7.65;;;12.60;99.90;;;;;;4970571;28;20090;-51
2023/07/06 02:07:16;;;;;;;13.45;7.57;;;12.60;99.90;;;;;;4958174;28;20047;-50
2023/07/06 02:09:46;;;;;;;19.65;7.85;;;12.60;99.90;;;;;;4971978;28;20043;-51
2023/07/06 02:12:12;;;;;;;16.80;7.90;;;12.50;99.90;;;;;;4966022;28;20049;-47
2023/07/06 02:14:40;;;;;;;14.52;7.97;;;12.60;99.90;;;;;;4974591;28;20090;-51
2023/07/06 02:17:07;;;;;;;16.83;8.35;;;12.60;99.90;;;;;;4970665;28;20031;-52
2023/07/06 02:19:35;;;;;;;18.20;8.32;;;12.60;99.90;;;;;;4972148;28;20050;-49
2023/07/06 02:22:03;;;;;;;19.42;8.27;;;12.60;99.90;;;;;;4940882;28;20043;-48
2023/07/06 02:24:30;;;;;;;13.90;8.20;;;12.60;99.90;;;;;;4967756;28;20070;-48
2023/07/06 02:26:56;;;;;;;18.63;11.00;;;12.70;99.90;;;;;;4974545;28;20041;-47
2023/07/06 02:29:24;;;;;;;15.60;8.52;;;12.60;99.90;;;;;;4957291;28;20039;-52
2023/07/06 02:31:50;;;;;;;15.73;8.25;;;12.70;99.90;;;;;;4957658;28;20114;-49
2023/07/06 02:34:24;;;;;;;15.18;7.75;;;12.60;99.90;;;;;;4955192;28;20518;-49
2023/07/06 02:36:53;;;;;;;16.00;10.05;;;12.70;99.90;;;;;;4970111;28;20426;-52
2023/07/06 02:39:25;;;;;;;16.70;8.00;;;12.70;99.90;;;;;;4974359;28;20058;-47
2023/07/06 02:41:56;;;;;;;16.23;10.65;;;12.70;99.90;;;;;;4973875;28;20066;-51
2023/07/06 02:44:23;;;;;;;16.48;7.78;;;12.70;99.90;;;;;;4972870;28;20042;-49
2023/07/06 02:46:49;;;;;;;20.73;7.88;;;12.80;99.90;;;;;;4973404;28;20513;-50
2023/07/06 02:49:16;;;;;;;15.13;11.13;;;12.70;99.90;;;;;;4937459;29;20500;-49
2023/07/06 02:51:42;;;;;;;18.45;8.00;;;12.90;99.90;;;;;;4954412;28;20403;-52
2023/07/06 02:54:11;;;;;;;15.02;7.63;;;12.90;99.90;;;;;;4956216;28;20437;-48
2023/07/06 02:56:36;;;;;;;17.27;10.82;;;12.90;99.90;;;;;;4966512;28;20051;-52
2023/07/06 02:59:03;;;;;;;15.50;10.88;;;12.90;99.90;;;;;;4938717;28;20046;-51
2023/07/06 03:01:29;;;;;;;14.68;8.02;;;12.90;99.90;;;;;;4954713;28;20491;-51
2023/07/06 03:03:54;;;;;;;16.67;7.63;;;12.80;99.90;;;;;;4953874;28;20062;-48
2023/07/06 03:06:20;;;;;;;15.23;8.07;;;12.90;99.90;;;;;;4958604;28;20192;-48
2023/07/06 03:08:47;;;;;;;20.52;8.65;;;12.90;99.90;;;;;;4954585;28;20394;-48
2023/07/06 03:11:14;;;;;;;20.85;8.32;;;12.80;99.90;;;;;;4965520;28;20435;-47
2023/07/06 03:13:40;;;;;;;15.73;7.65;;;12.90;99.90;;;;;;4973747;28;20117;-49
2023/07/06 03:16:07;;;;;;;18.20;7.95;;;12.80;99.90;;;;;;4973353;28;20458;-50
2023/07/06 03:18:33;;;;;;;17.67;7.97;;;13.00;99.90;;;;;;4973495;28;20043;-49
2023/07/06 03:21:00;;;;;;;19.80;11.48;;;13.00;99.90;;;;;;4973319;28;20035;-50
2023/07/06 03:23:27;;;;;;;20.88;8.23;;;12.90;99.90;;;;;;4963135;28;20121;-49
2023/07/06 03:25:54;;;;;;;18.83;8.15;;;13.00;99.90;;;;;;4973096;28;20110;-47
2023/07/06 03:28:21;;;;;;;17.08;7.85;;;12.90;99.90;;;;;;4973405;28;20454;-49
2023/07/06 03:30:54;;;;;;;20.80;8.95;;;12.90;99.90;;;;;;4958937;28;20130;-49
2023/07/06 03:33:20;;;;;;;24.02;8.88;;;13.10;99.90;;;;;;4953596;28;20039;-52
2023/07/06 03:35:45;;;;;;;18.25;12.00;;;13.00;99.90;;;;;;4957634;28;20031;-51
2023/07/06 03:38:12;;;;;;;18.67;8.68;;;13.10;99.90;;;;;;4973177;28;20046;-51
2023/07/06 03:40:38;;;;;;;18.92;8.75;;;13.00;99.90;;;;;;4971803;28;20082;-52
2023/07/06 03:43:04;;;;;;;22.42;8.88;;;13.10;99.90;;;;;;4953799;28;20526;-51
2023/07/06 03:45:30;;;;;;;17.45;10.80;;;13.10;99.90;;;;;;4957577;28;20141;-49
2023/07/06 03:47:56;;;;;;;21.15;11.98;;;13.10;99.90;;;;;;4953646;28;20130;-46
2023/07/06 03:50:22;;;;;;;20.02;11.77;;;13.10;99.90;;;;;;4953507;28;20130;-47
2023/07/06 03:52:48;;;;;;;19.15;11.20;;;13.10;99.90;;;;;;4965182;28;20039;-48
2023/07/06 03:55:16;;;;;;;18.05;7.90;;;13.20;99.90;;;;;;4936679;29;20039;-48
2023/07/06 03:57:45;;;;;;;20.65;10.70;;;13.10;99.90;;;;;;4961991;28;20035;-48
2023/07/06 04:00:22;;;;;;;16.55;7.63;;;13.20;99.90;;;;;;4972992;28;20075;-46
2023/07/06 04:03:00;;;;;;;17.30;10.75;;;13.10;99.90;;;;;;4963316;28;20042;-48
2023/07/06 04:05:33;;;;;;;19.17;11.20;;;13.10;99.90;;;;;;4935652;28;20047;-45
2023/07/06 04:08:03;;;;;;;17.25;10.52;;;13.10;99.90;;;;;;4954688;28;20105;-47
2023/07/06 04:10:30;;;;;;;18.88;7.88;;;13.10;99.90;;;;;;4937209;29;20043;-47
2023/07/06 04:12:56;;;;;;;18.17;11.13;;;13.10;99.90;;;;;;4953737;28;20043;-47
2023/07/06 04:15:23;;;;;;;18.45;8.60;;;13.10;99.90;;;;;;4935984;28;20027;-47
2023/07/06 04:17:50;;;;;;;19.13;7.63;;;13.10;99.90;;;;;;4963798;28;20074;-46
2023/07/06 04:20:24;;;;;;;19.52;7.97;;;13.10;99.90;;;;;;4936016;29;20093;-47
2023/07/06 04:22:54;;;;;;;18.20;8.27;;;13.00;99.90;;;;;;4962840;28;20055;-48
2023/07/06 04:25:29;;;;;;;21.48;8.65;;;13.00;99.90;;;;;;4972708;28;20414;-51
2023/07/06 04:27:56;;;;;;;19.70;8.50;;;13.10;99.90;;;;;;4972305;28;20493;-49
2023/07/06 04:30:23;;;;;;;16.95;8.32;;;13.10;99.90;;;;;;4972767;28;20085;-49
2023/07/06 04:32:49;;;;;;;15.85;11.02;;;13.10;99.90;;;;;;4972342;28;20039;-50
2023/07/06 04:35:22;;;;;;;19.00;11.15;;;13.10;99.90;;;;;;4935811;28;20039;-49
2023/07/06 04:37:49;;;;;;;19.20;8.18;;;13.20;99.90;;;;;;4952981;28;20039;-50
2023/07/06 04:40:20;;;;;;;16.00;8.15;;;13.30;99.90;;;;;;4953210;28;20050;-50
2023/07/06 04:42:48;;;;;;;23.00;9.38;;;13.40;99.90;;;;;;4961525;28;20078;-50
2023/07/06 04:45:15;;;;;;;20.77;9.45;;;13.50;99.90;;;;;;4974060;28;20038;-49
2023/07/06 04:47:44;;;;;;;23.10;9.32;;;13.50;99.90;;;;;;4976454;28;20078;-51
2023/07/06 04:50:12;;;;;;;22.73;9.85;;;13.50;99.90;;;;;;4971552;28;20047;-50
2023/07/06 04:52:38;;;;;;;21.92;9.68;;;13.70;99.90;;;;;;4956830;28;20067;-53
2023/07/06 04:55:05;;;;;;;25.48;9.77;;;13.60;99.90;;;;;;4960502;28;20043;-51
2023/07/06 04:57:31;;;;;;;19.38;9.77;;;13.80;99.90;;;;;;4976188;28;20391;-47
2023/07/06 04:59:57;;;;;;;19.38;9.27;;;13.80;99.90;;;;;;4976144;28;20117;-51
2023/07/06 05:02:23;;;;;;;21.90;12.15;;;13.70;99.90;;;;;;4967976;28;20117;-48
2023/07/06 05:04:49;;;;;;;22.08;9.57;;;13.90;99.90;;;;;;4938971;28;20055;-46
2023/07/06 05:07:15;;;;;;;19.73;9.10;;;13.90;99.90;;;;;;4960988;28;20071;-48
2023/07/06 05:09:41;;;;;;;23.13;12.77;;;14.00;99.90;;;;;;4956851;28;20097;-49
2023/07/06 05:12:10;;;;;;;21.35;12.55;;;14.00;99.90;;;;;;4956358;28;20040;-50
2023/07/06 05:14:36;;;;;;;23.98;8.82;;;14.10;99.90;;;;;;4973945;28;20034;-49
2023/07/06 05:17:02;;;;;;;17.67;12.13;;;14.20;99.90;;;;;;4956619;28;20086;-49
2023/07/06 05:19:28;;;;;;;19.42;8.68;;;14.10;99.90;;;;;;4971627;28;20050;-47
2023/07/06 05:21:55;;;;;;;19.23;11.05;;;14.20;99.90;;;;;;4975706;28;20035;-50
2023/07/06 05:24:23;;;;;;;22.05;9.13;;;14.30;99.90;;;;;;4975813;28;20101;-49
2023/07/06 05:26:49;;;;;;;21.73;9.15;;;14.20;99.90;;;;;;4963588;28;20089;-51
2023/07/06 05:29:14;;;;;;;16.77;11.20;;;14.20;99.90;;;;;;4971515;28;20426;-51
2023/07/06 05:31:41;;;;;;;20.10;11.90;;;14.20;99.90;;;;;;4959864;28;20039;-49
2023/07/06 05:34:08;;;;;;;21.67;9.60;;;14.20;99.90;;;;;;4968195;28;20034;-51
2023/07/06 05:36:36;;;;;;;21.20;9.38;;;14.30;99.90;;;;;;4971953;28;20090;-51
2023/07/06 05:39:03;;;;;;;21.05;10.30;;;14.10;99.90;;;;;;4961268;28;20051;-51
2023/07/06 05:41:29;;;;;;;24.80;9.70;;;14.20;99.90;;;;;;4974872;28;20079;-49
2023/07/06 05:43:54;;;;;;;19.15;11.73;;;14.10;99.90;;;;;;4955787;28;20118;-47
2023/07/06 05:46:20;;;;;;;18.00;11.20;;;14.20;99.90;;;;;;4969648;28;20051;-48
2023/07/06 05:48:46;;;;;;;21.35;12.00;;;14.20;99.90;;;;;;4961157;28;20123;-50
2023/07/06 05:51:11;;;;;;;24.33;10.10;;;14.20;99.90;;;;;;4966533;28;20038;-48
2023/07/06 05:53:37;;;;;;;22.40;12.43;;;14.30;99.90;;;;;;4975195;28;20474;-48
2023/07/06 05:56:03;;;;;;;16.60;10.05;;;14.40;99.90;;;;;;4974461;28;20529;-51
2023/07/06 05:58:28;;;;;;;24.25;9.52;;;14.50;99.90;;;;;;4975143;28;20462;-50
2023/07/06 06:00:56;;;;;;;27.30;10.48;;;14.50;99.90;;;;;;4938466;29;20137;-51
2023/07/06 06:03:21;;;;;;;18.25;10.02;;;14.60;99.90;;;;;;4955220;28;20057;-51
2023/07/06 06:05:49;;;;;;;21.48;11.70;;;14.60;99.90;;;;;;4955416;29;20169;-50
2023/07/06 06:08:16;;;;;;;19.30;9.88;;;14.80;99.90;;;;;;4955671;28;20521;-51
2023/07/06 06:10:42;;;;;;;19.95;11.40;;;14.80;99.90;;;;;;4955615;28;20042;-48
2023/07/06 06:13:08;;;;;;;20.38;9.13;;;14.90;99.90;;;;;;4970626;28;20057;-51
2023/07/06 06:15:33;;;;;;;21.58;11.10;;;15.00;99.90;;;;;;4974557;28;20446;-48
2023/07/06 06:17:59;;;;;;;18.25;10.15;;;14.90;99.90;;;;;;4974846;28;20047;-49
2023/07/06 06:20:25;;;;;;;21.40;11.23;;;14.90;99.90;;;;;;4974701;28;20070;-51
2023/07/06 06:22:51;;;;;;;23.25;11.25;;;15.00;99.90;;;;;;4968793;28;20114;-50
2023/07/06 06:25:17;;;;;;;22.30;11.45;;;15.10;99.90;;;;;;4955157;28;20117;-50
2023/07/06 06:27:43;;;;;;;22.52;11.85;;;15.20;99.90;;;;;;4955181;28;20043;-48
2023/07/06 06:30:09;;;;;;;18.48;9.02;;;15.30;99.90;;;;;;4958126;28;20068;-49
2023/07/06 06:32:35;;;;;;;24.10;9.50;;;15.20;99.90;;;;;;4974270;28;20047;-50
2023/07/06 06:35:02;;;;;;;23.67;9.70;;;15.30;99.90;;;;;;4973714;28;20054;-49
2023/07/06 06:37:28;;;;;;;25.90;10.75;;;15.20;99.90;;;;;;4963111;28;20046;-50
2023/07/06 06:39:53;;;;;;;22.50;9.90;;;15.30;99.90;;;;;;4964614;28;20031;-50
2023/07/06 06:42:19;;;;;;;26.08;10.90;;;15.40;99.90;;;;;;4956253;28;20039;-50
2023/07/06 06:44:45;;;;;;;21.30;10.80;;;15.60;99.90;;;;;;4956093;28;20031;-48
2023/07/06 06:47:11;;;;;;;20.15;10.30;;;15.60;99.90;;;;;;4953145;28;20043;-50
2023/07/06 06:49:36;;;;;;;17.38;10.05;;;15.70;99.90;;;;;;4964420;28;20053;-51
2023/07/06 06:52:03;;;;;;;18.95;9.35;;;15.80;99.90;;;;;;4964304;28;20483;-50
2023/07/06 06:54:30;;;;;;;23.33;9.00;;;15.70;99.90;;;;;;4954897;28;20502;-47
2023/07/06 06:56:56;;;;;;;19.25;9.07;;;15.70;99.90;;;;;;4954600;28;20499;-50
2023/07/06 06:59:22;;;;;;;20.33;10.30;;;15.90;99.90;;;;;;4971371;28;20063;-51
2023/07/06 07:01:50;;;;;;;22.92;8.73;;;15.90;99.90;;;;;;4966140;28;20042;-51
2023/07/06 07:04:16;;;;;;;20.48;9.30;;;16.10;99.90;;;;;;4958880;28;20615;-51
2023/07/06 07:06:42;;;;;;;15.80;9.55;;;16.10;99.90;;;;;;4961584;28;20384;-52
2023/07/06 07:09:10;;;;;;;17.20;9.45;;;16.10;99.90;;;;;;4971598;28;20038;-53
2023/07/06 07:11:36;;;;;;;21.63;8.35;;;16.20;99.90;;;;;;4973776;28;20140;-49
2023/07/06 07:14:02;;;;;;;18.00;8.95;;;16.40;99.90;;;;;;4964261;28;20051;-49
2023/07/06 07:16:28;;;;;;;19.00;8.70;;;16.40;99.90;;;;;;4971728;28;20038;-48
2023/07/06 07:18:54;;;;;;;20.33;8.45;;;16.40;99.90;;;;;;4963658;28;20390;-48
2023/07/06 07:21:20;;;;;;;18.45;8.15;;;16.50;99.90;;;;;;4954249;28;20039;-48
2023/07/06 07:23:48;;;;;;;21.40;8.63;;;16.60;99.90;;;;;;4953959;28;20175;-51
2023/07/06 07:26:16;;;;;;;20.67;8.52;;;16.60;99.90;;;;;;4953987;28;20045;-48
2023/07/06 07:28:42;;;;;;;15.45;7.68;;;16.80;99.90;;;;;;4953996;28;20395;-51
2023/07/06 07:31:11;;;;;;;18.25;9.23;;;16.90;99.90;;;;;;4948679;28;20076;-50
2023/07/06 07:33:38;;;;;;;18.48;9.00;;;16.90;99.90;;;;;;4929557;29;20476;-50
2023/07/06 07:36:05;;;;;;;17.55;8.80;;;17.00;99.90;;;;;;4945134;28;20050;-50
2023/07/06 07:38:31;;;;;;;16.17;8.73;;;17.10;99.90;;;;;;4945678;28;20472;-51
2023/07/06 07:40:59;;;;;;;17.45;8.07;;;17.10;99.90;;;;;;4946082;28;20452;-51
2023/07/06 07:43:29;;;;;;;16.42;8.65;;;17.00;99.90;;;;;;4946608;28;20078;-51
2023/07/06 07:46:00;;;;;;;20.00;8.98;;;17.10;99.90;;;;;;4946383;28;20044;-48
2023/07/06 07:48:26;;;;;;;16.65;8.70;;;17.10;99.90;;;;;;4944840;28;20047;-50
2023/07/06 07:50:56;;;;;;;16.33;7.78;;;17.20;99.90;;;;;;4947179;28;20071;-50
2023/07/06 07:53:23;;;;;;;18.88;8.90;;;17.10;99.90;;;;;;4947157;28;20046;-48
2023/07/06 07:55:49;;;;;;;15.38;8.07;;;17.10;99.90;;;;;;4945419;28;20455;-50
2023/07/06 07:58:16;;;;;;;17.33;8.85;;;17.20;99.90;;;;;;4941671;28;20066;-51
2023/07/06 08:00:50;;;;;;;21.38;7.93;;;17.30;99.90;;;;;;4946317;28;20090;-51
2023/07/06 08:03:16;;;;;;;14.63;7.38;;;17.50;99.90;;;;;;4945630;28;20573;-52
2023/07/06 08:05:42;;;;;;;15.02;5.40;;;17.60;99.90;;;;;;4943936;28;20049;-49
2023/07/06 08:08:11;;;;;;;14.05;6.53;;;17.60;99.90;;;;;;4927303;28;20047;-50
2023/07/06 08:10:39;;;;;;;12.88;6.75;;;17.70;99.90;;;;;;4944182;28;20122;-47
2023/07/06 08:13:07;;;;;;;13.98;7.22;;;17.70;99.90;;;;;;4925915;28;20051;-48
2023/07/06 08:15:33;;;;;;;12.25;6.00;;;17.80;99.90;;;;;;4945103;28;20058;-49
2023/07/06 08:18:00;;;;;;;13.77;4.97;;;17.90;99.90;;;;;;4944952;28;20047;-49
2023/07/06 08:20:28;;;;;;;12.25;5.97;;;18.10;99.90;;;;;;4944398;28;20109;-52
2023/07/06 08:22:57;;;;;;;13.13;6.07;;;18.20;99.90;;;;;;4943312;28;20201;-53
2023/07/06 08:25:26;;;;;;;14.27;6.13;;;18.10;99.90;;;;;;4944801;28;20518;-51
2023/07/06 08:27:53;;;;;;;8.88;5.72;;;18.10;99.90;;;;;;4941894;28;20723;-49
2023/07/06 08:30:21;;;;;;;11.75;5.50;;;18.10;99.90;;;;;;4944186;28;20618;-51
2023/07/06 08:32:50;;;;;;;12.27;5.55;;;18.20;99.90;;;;;;4911478;28;20042;-53
2023/07/06 08:35:17;;;;;;;15.02;5.03;;;18.10;99.90;;;;;;4944013;28;20063;-49
2023/07/06 08:37:44;;;;;;;11.82;5.13;;;18.10;99.90;;;;;;4944893;28;20036;-49
2023/07/06 08:40:17;;;;;;;10.30;4.25;;;18.20;99.90;;;;;;4927104;28;20039;-52
2023/07/06 08:42:45;;;;;;;7.97;4.00;;;18.10;99.90;;;;;;4943527;28;20077;-51
2023/07/06 08:45:19;;;;;;;7.07;3.35;;;18.20;99.90;;;;;;4943860;28;20043;-52
2023/07/06 08:47:46;;;;;;;14.18;4.20;;;18.20;99.90;;;;;;4944332;28;20122;-51
2023/07/06 08:50:12;;;;;;;10.43;4.05;;;18.30;99.90;;;;;;4943040;28;20067;-49
2023/07/06 08:52:39;;;;;;;9.40;3.88;;;18.40;99.90;;;;;;4944295;28;20152;-51
2023/07/06 08:55:15;;;;;;;9.05;3.58;;;18.30;99.90;;;;;;4944293;28;20051;-50
2023/07/06 08:57:45;;;;;;;11.50;3.80;;;18.40;99.90;;;;;;4944459;28;20098;-51
2023/07/06 09:00:25;;;;;;;9.27;3.85;;;18.50;99.90;;;;;;4943290;28;20042;-51
2023/07/06 09:03:05;;;;;;;9.65;3.55;;;18.60;99.90;;;;;;4940981;28;20039;-51
2023/07/06 09:05:33;;;;;;;7.30;3.15;;;18.50;99.90;;;;;;4943234;28;20130;-51
2023/07/06 09:08:00;;;;;;;9.98;3.55;;;18.50;99.90;;;;;;4925188;28;20058;-47
2023/07/06 09:10:28;;;;;;;10.35;3.40;;;18.60;99.90;;;;;;4926744;28;20543;-51
2023/07/06 09:12:56;;;;;;;10.93;3.63;;;18.80;99.90;;;;;;4942459;28;20698;-51
2023/07/06 09:15:33;;;;;;;13.50;3.80;;;18.90;99.90;;;;;;4944114;28;20039;-49
2023/07/06 09:17:59;;;;;;;8.40;3.30;;;18.90;99.90;;;;;;4943239;28;20049;-50
2023/07/06 09:20:26;;;;;;;8.02;3.10;;;19.00;99.90;;;;;;4943957;28;20526;-50
2023/07/06 09:22:53;;;;;;;8.50;3.55;;;19.10;99.90;;;;;;4941977;28;20051;-49
2023/07/06 09:25:44;;;;;;;10.20;3.22;;;19.20;99.90;;;;;;4941303;28;20035;-49
2023/07/06 09:28:19;;;;;;;8.23;2.88;;;19.10;99.90;;;;;;4928588;28;20042;-51
2023/07/06 09:30:48;;;;;;;6.63;2.67;;;19.00;99.90;;;;;;4957846;28;20035;-53
2023/07/06 09:33:26;;;;;;;9.25;2.83;;;18.90;99.90;;;;;;4938180;28;20043;-47
2023/07/06 09:35:54;;;;;;;9.10;3.22;;;19.00;99.90;;;;;;4965923;28;20050;-51
2023/07/06 09:38:20;;;;;;;7.95;2.80;;;18.90;99.90;;;;;;4953601;28;20035;-48
2023/07/06 09:40:47;;;;;;;9.23;3.13;;;19.10;99.90;;;;;;4955886;28;20046;-46
2023/07/06 09:43:18;;;;;;;11.55;3.90;;;19.10;99.90;;;;;;4938382;28;20570;-47
2023/07/06 09:45:45;;;;;;;8.93;3.13;;;19.10;99.90;;;;;;4959500;28;20475;-50
2023/07/06 09:48:31;;;;;;;12.60;3.50;;;19.00;99.90;;;;;;4969361;28;20047;-48
2023/07/06 09:51:08;;;;;;;10.70;3.30;;;18.90;99.90;;;;;;4958662;28;20121;-49
2023/07/06 09:53:50;;;;;;;11.63;3.13;;;18.80;99.90;;;;;;4955393;28;20043;-48
2023/07/06 09:56:16;;;;;;;12.15;3.05;;;18.80;99.90;;;;;;4955144;28;20102;-46
2023/07/06 09:58:45;;;;;;;8.63;2.97;;;18.80;99.90;;;;;;4960672;28;20035;-48
2023/07/06 10:01:20;;;;;;;10.25;3.17;;;19.00;99.90;;;;;;4959981;28;20395;-47
2023/07/06 10:04:23;;;;;;;8.45;3.80;;;19.00;99.90;;;;;;4954697;28;20047;-51
2023/07/06 10:07:23;;;;;;;10.13;2.90;;;18.90;99.90;;;;;;4950777;28;20298;-51
2023/07/06 10:09:49;;;;;;;11.07;3.55;;;18.80;99.90;;;;;;4952817;28;20073;-49
2023/07/06 10:12:44;;;;;;;11.10;3.17;;;18.80;99.90;;;;;;4954840;28;20074;-49
2023/07/06 10:15:19;;;;;;;8.98;3.00;;;18.90;99.90;;;;;;4954146;28;20047;-52
2023/07/06 10:17:55;;;;;;;11.85;3.20;;;19.30;99.90;;;;;;4954438;28;20039;-49
2023/07/06 10:20:42;;;;;;;8.05;2.72;;;19.60;99.90;;;;;;4964810;28;20042;-50
2023/07/06 10:23:41;;;;;;;7.35;2.58;;;19.90;99.90;;;;;;4974028;28;20098;-50
2023/07/06 10:26:26;;;;;;;9.02;2.80;;;20.00;99.90;;;;;;4937330;28;20051;-50
2023/07/06 10:29:03;;;;;;;8.52;2.40;;;20.00;99.90;;;;;;4937641;28;20408;-49
2023/07/06 10:31:39;;;;;;;6.82;2.50;;;20.00;99.90;;;;;;4968158;28;20105;-51
2023/07/06 10:34:16;;;;;;;7.93;2.50;;;20.00;99.90;;;;;;4954310;28;20047;-52
2023/07/06 10:36:42;;;;;;;5.13;2.25;;;20.20;99.90;;;;;;4954075;28;20130;-50
2023/07/06 10:39:33;;;;;;;5.65;2.03;;;20.30;99.90;;;;;;4954578;28;20487;-51
2023/07/06 10:42:05;;;;;;;5.60;1.83;;;20.60;99.90;;;;;;4953324;28;20110;-53
2023/07/06 10:44:49;;;;;;;7.85;2.33;;;20.70;99.90;;;;;;4954483;28;20039;-51
2023/07/06 10:47:35;;;;;;;6.20;1.70;;;20.70;99.90;;;;;;4958630;28;20057;-50
2023/07/06 10:50:07;;;;;;;6.65;1.90;;;20.60;99.90;;;;;;4973913;28;20042;-47
2023/07/06 10:52:41;;;;;;;7.18;1.77;;;20.40;99.90;;;;;;4935811;28;20146;-49
2023/07/06 10:55:19;;;;;;;8.50;2.20;;;20.30;99.90;;;;;;4954324;28;20097;-49
2023/07/06 10:57:57;;;;;;;4.63;1.77;;;20.20;99.90;;;;;;4957505;28;20039;-49
2023/07/06 11:00:33;;;;;;;9.07;2.15;;;20.10;99.90;;;;;;4973377;28;20506;-48
2023/07/06 11:03:01;;;;;;;8.50;2.25;;;20.00;99.90;;;;;;4968256;28;20049;-49
2023/07/06 11:05:29;;;;;;;7.18;2.50;;;19.90;99.90;;;;;;4934983;28;20051;-50
2023/07/06 11:08:00;;;;;;;7.13;3.08;;;20.00;99.90;;;;;;4952897;28;20031;-47
2023/07/06 11:10:37;;;;;;;7.53;3.38;;;20.20;99.90;;;;;;4954063;28;20054;-51
2023/07/06 11:13:03;;;;;;;8.07;3.80;;;20.50;99.90;;;;;;4969061;28;20502;-48
2023/07/06 11:15:35;;;;;;;8.05;3.03;;;20.80;99.90;;;;;;4957696;28;20051;-48
2023/07/06 11:18:31;;;;;;;6.43;2.17;;;21.10;99.90;;;;;;4949942;28;20038;-48
2023/07/06 11:21:24;;;;;;;9.75;2.38;;;21.30;99.90;;;;;;4951809;28;20094;-50
2023/07/06 11:24:09;;;;;;;6.47;2.38;;;21.20;99.90;;;;;;4941826;28;20408;-46
2023/07/06 11:26:44;;;;;;;9.98;2.78;;;21.20;99.90;;;;;;4951309;28;20043;-52
2023/07/06 11:29:10;;;;;;;9.50;3.20;;;21.20;99.90;;;;;;4953321;28;20399;-49
2023/07/06 11:32:04;;;;;;;9.75;2.92;;;21.40;99.90;;;;;;4951597;28;20050;-46
2023/07/06 11:34:34;;;;;;;;;;;21.50;99.90;;;;;;4950555;28;20035;-46
2023/07/06 11:37:13;;;;;;;7.15;2.78;;;21.50;99.90;;;;;;4954640;28;19930;-48
2023/07/06 11:40:06;;;;;;;7.30;2.90;;;21.50;99.90;;;;;;4948895;28;20039;-48
2023/07/06 11:42:47;;;;;;;10.63;3.30;;;21.30;99.90;;;;;;4950827;28;20043;-51
2023/07/06 11:45:23;;;;;;;7.13;2.97;;;21.20;99.90;;;;;;4951106;28;20092;-48
2023/07/06 11:48:06;;;;;;;8.00;3.35;;;21.10;99.90;;;;;;4943429;28;20043;-49
2023/07/06 11:50:37;;;;;;;7.72;3.00;;;20.90;99.90;;;;;;4945843;28;20553;-50
2023/07/06 11:53:11;;;;;;;7.50;3.10;;;20.70;99.90;;;;;;4949826;28;20122;-49
2023/07/06 11:55:54;;;;;;;9.10;3.40;;;20.60;99.90;;;;;;4951413;28;20501;-49
2023/07/06 11:58:29;;;;;;;10.60;3.47;;;20.40;99.90;;;;;;4951489;28;20535;-49
2023/07/06 12:01:00;;;;;;;9.60;3.40;;;20.20;99.90;;;;;;4952061;28;20440;-51
2023/07/06 12:03:29;;;;;;;8.23;3.42;;;20.10;99.90;;;;;;4952409;28;20072;-52
2023/07/06 12:05:59;;;;;;;8.40;2.90;;;20.00;99.90;;;;;;4946580;28;20051;-49
2023/07/06 12:08:37;;;;;;;8.50;3.10;;;19.90;99.90;;;;;;4948934;28;20043;-47
2023/07/06 12:11:24;;;;;;;8.43;3.10;;;19.90;99.90;;;;;;4955063;28;20467;-48
2023/07/06 12:13:55;;;;;;;7.70;3.00;;;19.80;99.90;;;;;;4954392;28;20507;-51
2023/07/06 12:16:30;;;;;;;7.53;2.30;;;19.90;99.90;;;;;;4938015;28;20497;-47
2023/07/06 12:19:03;;;;;;;6.05;2.30;;;19.90;99.90;;;;;;4953242;28;20085;-51
2023/07/06 12:21:31;;;;;;;6.13;2.28;;;19.90;99.90;;;;;;4948130;28;20439;-50
2023/07/06 12:23:59;;;;;;;8.10;2.50;;;20.00;99.90;;;;;;4949884;28;20402;-51
2023/07/06 12:26:29;;;;;;;7.00;2.70;;;20.00;99.90;;;;;;4945913;28;20078;-50
2023/07/06 12:28:59;;;;;;;8.60;2.30;;;20.00;99.90;;;;;;4952181;28;20074;-50
2023/07/06 12:31:27;;;;;;;7.25;2.00;;;20.10;99.90;;;;;;4949881;28;20091;-50
2023/07/06 12:33:59;;;;;;;5.78;2.15;;;20.10;99.90;;;;;;4961387;28;20050;-50
2023/07/06 12:36:31;;;;;;;7.35;2.28;;;20.10;99.90;;;;;;4951714;28;20039;-52
2023/07/06 12:39:00;;;;;;;5.10;1.73;;;20.20;99.90;;;;;;4948608;28;20110;-50
2023/07/06 12:41:31;;;;;;;5.03;1.98;;;20.20;99.90;;;;;;4951934;28;20434;-53
2023/07/06 12:43:57;;;;;;;9.90;2.95;;;20.10;99.90;;;;;;4949840;28;20474;-51
2023/07/06 12:46:23;;;;;;;7.75;2.75;;;20.10;99.90;;;;;;4944987;28;20051;-52
2023/07/06 12:48:53;;;;;;;6.72;3.25;;;20.00;99.90;;;;;;4946654;28;20114;-50
2023/07/06 12:51:24;;;;;;;7.05;3.08;;;20.00;99.90;;;;;;4944828;28;20078;-48
2023/07/06 12:53:51;;;;;;;6.65;2.70;;;20.00;99.90;;;;;;4931793;28;20479;-48